createdAt,value
2017-07-18T00:00:27.537Z,17.85
2017-07-18T00:01:08.431Z,17.9
2017-07-18T00:01:49.325Z,17.86
2017-07-18T00:02:30.222Z,17.94
2017-07-18T00:03:11.111Z,17.85
2017-07-18T00:03:52.006Z,17.85
2017-07-18T00:04:32.899Z,17.83
2017-07-18T00:05:13.807Z,17.78
2017-07-18T00:05:54.678Z,17.82
2017-07-18T00:06:35.579Z,17.78
2017-07-18T00:07:16.466Z,17.76
2017-07-18T00:07:57.359Z,17.82
2017-07-18T00:08:38.256Z,17.8
2017-07-18T00:09:19.146Z,17.6
2017-07-18T00:10:00.036Z,17.72
2017-07-18T00:10:40.931Z,17.68
2017-07-18T00:11:21.821Z,17.57
2017-07-18T00:12:02.718Z,17.6
2017-07-18T00:12:43.608Z,17.67
2017-07-18T00:13:24.491Z,17.52
2017-07-18T00:14:05.387Z,17.59
2017-07-18T00:14:46.283Z,17.64
2017-07-18T00:15:27.173Z,17.65
2017-07-18T00:16:08.071Z,17.67
2017-07-18T00:16:48.974Z,17.76
2017-07-18T00:17:29.845Z,17.63
2017-07-18T00:18:10.746Z,17.6
2017-07-18T00:18:51.635Z,17.65
2017-07-18T00:19:32.529Z,17.63
2017-07-18T00:20:13.416Z,17.65
2017-07-18T00:20:54.321Z,17.65
2017-07-18T00:21:35.232Z,17.59
2017-07-18T00:22:16.123Z,17.52
2017-07-18T00:22:57.011Z,17.57
2017-07-18T00:23:37.910Z,17.56
2017-07-18T00:24:18.801Z,17.52
2017-07-18T00:24:59.689Z,17.56
2017-07-18T00:25:40.605Z,17.52
2017-07-18T00:26:21.498Z,17.64
2017-07-18T00:27:02.392Z,17.64
2017-07-18T00:27:43.283Z,17.46
2017-07-18T00:28:24.170Z,17.49
2017-07-18T00:29:05.059Z,17.46
2017-07-18T00:29:45.955Z,17.49
2017-07-18T00:30:26.858Z,17.44
2017-07-18T00:31:07.742Z,17.52
2017-07-18T00:31:48.627Z,17.63
2017-07-18T00:32:29.517Z,17.57
2017-07-18T00:33:10.403Z,17.51
2017-07-18T00:33:51.290Z,17.56
2017-07-18T00:34:32.179Z,17.59
2017-07-18T00:35:13.099Z,17.6
2017-07-18T00:35:53.984Z,17.59
2017-07-18T00:36:34.875Z,17.49
2017-07-18T00:37:15.796Z,17.6
2017-07-18T00:37:56.662Z,17.63
2017-07-18T00:38:37.556Z,17.49
2017-07-18T00:39:18.442Z,17.52
2017-07-18T00:39:59.323Z,17.65
2017-07-18T00:40:40.217Z,17.56
2017-07-18T00:41:21.108Z,17.63
2017-07-18T00:42:02.004Z,17.54
2017-07-18T00:42:42.908Z,17.63
2017-07-18T00:43:23.802Z,17.57
2017-07-18T00:44:04.685Z,17.52
2017-07-18T00:44:45.585Z,17.6
2017-07-18T00:45:26.490Z,17.59
2017-07-18T00:46:07.356Z,17.6
2017-07-18T00:46:48.247Z,17.49
2017-07-18T00:47:29.146Z,17.64
2017-07-18T00:48:10.031Z,17.63
2017-07-18T00:48:50.917Z,17.63
2017-07-18T00:49:31.811Z,17.49
2017-07-18T00:50:12.707Z,17.59
2017-07-18T00:50:53.587Z,17.57
2017-07-18T00:51:34.487Z,17.42
2017-07-18T00:52:15.383Z,17.45
2017-07-18T00:52:56.273Z,17.51
2017-07-18T00:53:37.164Z,17.33
2017-07-18T00:54:18.057Z,17.39
2017-07-18T00:54:58.938Z,17.39
2017-07-18T00:55:39.827Z,17.36
2017-07-18T00:56:20.735Z,17.39
2017-07-18T00:57:01.621Z,17.38
2017-07-18T00:57:42.507Z,17.39
2017-07-18T00:58:23.409Z,17.34
2017-07-18T00:59:04.301Z,17.48
2017-07-18T00:59:45.199Z,17.54
2017-07-18T01:00:26.085Z,17.44
2017-07-18T01:01:06.976Z,17.38
2017-07-18T01:01:47.876Z,17.33
2017-07-18T01:02:28.768Z,17.33
2017-07-18T01:03:09.666Z,17.34
2017-07-18T01:03:50.555Z,17.27
2017-07-18T01:04:31.442Z,17.26
2017-07-18T01:05:12.331Z,17.26
2017-07-18T01:05:53.232Z,17.22
2017-07-18T01:06:34.123Z,17.15
2017-07-18T01:07:15.014Z,17.16
2017-07-18T01:07:55.908Z,17.16
2017-07-18T01:08:36.791Z,17.22
2017-07-18T01:09:17.675Z,17.27
2017-07-18T01:09:58.571Z,17.24
2017-07-18T01:10:39.459Z,17.29
2017-07-18T01:11:20.351Z,17.24
2017-07-18T01:12:01.244Z,17.19
2017-07-18T01:12:42.139Z,17.19
2017-07-18T01:13:23.028Z,17.19
2017-07-18T01:14:03.937Z,17.19
2017-07-18T01:14:44.814Z,17.2
2017-07-18T01:15:25.700Z,17.14
2017-07-18T01:16:06.584Z,17.11
2017-07-18T01:16:47.488Z,17.16
2017-07-18T01:17:28.371Z,17.05
2017-07-18T01:18:09.257Z,17.11
2017-07-18T01:18:50.140Z,17.11
2017-07-18T01:19:31.031Z,17.05
2017-07-18T01:20:11.914Z,17.08
2017-07-18T01:20:52.815Z,17.06
2017-07-18T01:21:33.705Z,17.11
2017-07-18T01:22:14.608Z,17.05
2017-07-18T01:22:55.494Z,17.06
2017-07-18T01:23:36.384Z,17.05
2017-07-18T01:24:17.288Z,17.15
2017-07-18T01:24:58.171Z,17.08
2017-07-18T01:25:39.047Z,17.08
2017-07-18T01:26:19.938Z,17.05
2017-07-18T01:27:00.839Z,17.09
2017-07-18T01:27:41.724Z,17.2
2017-07-18T01:28:22.607Z,17.2
2017-07-18T01:29:03.494Z,17.15
2017-07-18T01:29:44.389Z,17.11
2017-07-18T01:30:25.280Z,17.16
2017-07-18T01:31:06.176Z,17.16
2017-07-18T01:31:47.078Z,17.19
2017-07-18T01:32:27.981Z,17.19
2017-07-18T01:33:08.873Z,17.22
2017-07-18T01:33:49.772Z,17.27
2017-07-18T01:34:30.687Z,17.19
2017-07-18T01:35:11.586Z,17.19
2017-07-18T01:35:52.488Z,17.26
2017-07-18T01:36:33.382Z,17.24
2017-07-18T01:37:14.275Z,17.2
2017-07-18T01:37:55.165Z,17.26
2017-07-18T01:38:36.063Z,17.27
2017-07-18T01:39:16.952Z,17.24
2017-07-18T01:39:57.853Z,17.26
2017-07-18T01:40:38.740Z,17.27
2017-07-18T01:41:19.648Z,17.31
2017-07-18T01:42:00.536Z,17.26
2017-07-18T01:42:41.425Z,17.2
2017-07-18T01:43:22.311Z,17.29
2017-07-18T01:44:03.210Z,17.2
2017-07-18T01:44:44.097Z,17.09
2017-07-18T01:45:24.993Z,17.19
2017-07-18T01:46:05.886Z,17.14
2017-07-18T01:46:46.775Z,17.23
2017-07-18T01:47:27.670Z,17.14
2017-07-18T01:48:08.565Z,17.09
2017-07-18T01:48:49.448Z,17.06
2017-07-18T01:49:30.336Z,17.04
2017-07-18T01:50:11.232Z,17.06
2017-07-18T01:50:52.120Z,17.11
2017-07-18T01:51:33.001Z,17.09
2017-07-18T01:52:13.888Z,17.08
2017-07-18T01:52:54.783Z,17.12
2017-07-18T01:53:35.671Z,17.11
2017-07-18T01:54:16.557Z,17.09
2017-07-18T01:54:57.465Z,17.05
2017-07-18T01:55:38.349Z,17.06
2017-07-18T01:56:19.225Z,16.9
2017-07-18T01:57:00.118Z,16.93
2017-07-18T01:57:41.005Z,16.94
2017-07-18T01:58:21.890Z,16.86
2017-07-18T01:59:02.797Z,16.89
2017-07-18T01:59:43.677Z,16.89
2017-07-18T02:00:24.569Z,16.96
2017-07-18T02:01:05.447Z,16.93
2017-07-18T02:01:46.349Z,17.02
2017-07-18T02:02:27.232Z,16.96
2017-07-18T02:03:08.121Z,16.93
2017-07-18T02:03:49.032Z,16.91
2017-07-18T02:04:29.908Z,16.9
2017-07-18T02:05:10.802Z,16.93
2017-07-18T02:05:51.690Z,16.87
2017-07-18T02:06:32.581Z,16.9
2017-07-18T02:07:13.457Z,16.76
2017-07-18T02:07:54.354Z,16.83
2017-07-18T02:08:35.245Z,16.78
2017-07-18T02:09:16.122Z,16.74
2017-07-18T02:09:57.007Z,16.74
2017-07-18T02:10:37.902Z,16.66
2017-07-18T02:11:18.784Z,16.66
2017-07-18T02:11:59.655Z,16.66
2017-07-18T02:12:40.530Z,16.65
2017-07-18T02:13:21.423Z,16.69
2017-07-18T02:14:02.311Z,16.68
2017-07-18T02:14:43.204Z,16.68
2017-07-18T02:15:24.093Z,16.66
2017-07-18T02:16:04.977Z,16.65
2017-07-18T02:16:45.870Z,16.68
2017-07-18T02:17:26.757Z,16.71
2017-07-18T02:18:07.644Z,16.81
2017-07-18T02:18:48.540Z,16.74
2017-07-18T02:19:29.433Z,16.75
2017-07-18T02:20:10.331Z,16.68
2017-07-18T02:20:51.206Z,16.66
2017-07-18T02:21:32.089Z,16.68
2017-07-18T02:22:12.980Z,16.64
2017-07-18T02:22:53.873Z,16.56
2017-07-18T02:23:34.748Z,16.56
2017-07-18T02:24:15.652Z,16.6
2017-07-18T02:24:56.529Z,16.51
2017-07-18T02:25:37.418Z,16.56
2017-07-18T02:26:18.312Z,16.54
2017-07-18T02:26:59.217Z,16.54
2017-07-18T02:27:40.095Z,16.56
2017-07-18T02:28:20.983Z,16.56
2017-07-18T02:29:01.871Z,16.53
2017-07-18T02:29:42.779Z,16.54
2017-07-18T02:30:23.654Z,16.51
2017-07-18T02:31:04.548Z,16.68
2017-07-18T02:31:45.438Z,16.47
2017-07-18T02:32:26.317Z,16.51
2017-07-18T02:33:07.216Z,16.39
2017-07-18T02:33:48.121Z,16.47
2017-07-18T02:34:28.991Z,16.49
2017-07-18T02:35:09.898Z,16.49
2017-07-18T02:35:50.790Z,16.49
2017-07-18T02:36:31.679Z,16.49
2017-07-18T02:37:12.570Z,16.42
2017-07-18T02:37:53.469Z,16.49
2017-07-18T02:38:34.359Z,16.31
2017-07-18T02:39:15.253Z,16.36
2017-07-18T02:39:56.154Z,16.36
2017-07-18T02:40:37.033Z,16.35
2017-07-18T02:41:17.931Z,16.31
2017-07-18T02:41:58.825Z,16.38
2017-07-18T02:42:39.710Z,16.43
2017-07-18T02:43:20.598Z,16.46
2017-07-18T02:44:01.490Z,16.47
2017-07-18T02:44:42.374Z,16.31
2017-07-18T02:45:23.266Z,16.31
2017-07-18T02:46:04.157Z,16.39
2017-07-18T02:46:45.053Z,16.35
2017-07-18T02:47:25.938Z,16.39
2017-07-18T02:48:06.829Z,16.31
2017-07-18T02:48:47.708Z,16.39
2017-07-18T02:49:28.591Z,16.38
2017-07-18T02:50:09.481Z,16.31
2017-07-18T02:50:50.363Z,16.33
2017-07-18T02:51:31.252Z,16.29
2017-07-18T02:52:12.153Z,16.23
2017-07-18T02:52:53.043Z,16.26
2017-07-18T02:53:33.912Z,16.24
2017-07-18T02:54:14.805Z,16.23
2017-07-18T02:54:55.686Z,16.26
2017-07-18T02:55:36.582Z,16.28
2017-07-18T02:56:17.453Z,16.23
2017-07-18T02:56:58.341Z,16.24
2017-07-18T02:57:39.223Z,16.26
2017-07-18T02:58:20.120Z,16.2
2017-07-18T02:59:00.989Z,16.17
2017-07-18T02:59:41.871Z,16.15
2017-07-18T03:00:22.807Z,16.13
2017-07-18T03:01:03.683Z,16.12
2017-07-18T03:01:44.575Z,16.12
2017-07-18T03:02:25.456Z,16.16
2017-07-18T03:03:06.325Z,16.13
2017-07-18T03:03:47.220Z,16.13
2017-07-18T03:04:28.109Z,16.09
2017-07-18T03:05:08.997Z,16.05
2017-07-18T03:05:49.877Z,16.08
2017-07-18T03:06:30.759Z,16.04
2017-07-18T03:07:11.646Z,16
2017-07-18T03:07:52.553Z,15.98
2017-07-18T03:08:33.435Z,16.01
2017-07-18T03:09:14.319Z,16.08
2017-07-18T03:09:55.205Z,16.08
2017-07-18T03:10:36.089Z,16.05
2017-07-18T03:11:16.970Z,16.1
2017-07-18T03:11:57.859Z,16.12
2017-07-18T03:12:38.757Z,16.04
2017-07-18T03:13:19.637Z,16.12
2017-07-18T03:14:00.527Z,16
2017-07-18T03:14:41.413Z,15.98
2017-07-18T03:15:22.292Z,16.01
2017-07-18T03:16:03.177Z,16.04
2017-07-18T03:16:44.068Z,16.04
2017-07-18T03:17:24.984Z,16.08
2017-07-18T03:18:05.849Z,16.02
2017-07-18T03:18:46.739Z,16.08
2017-07-18T03:19:27.623Z,15.98
2017-07-18T03:20:08.508Z,15.94
2017-07-18T03:20:49.389Z,16
2017-07-18T03:21:30.287Z,15.97
2017-07-18T03:22:11.177Z,15.94
2017-07-18T03:22:52.066Z,15.94
2017-07-18T03:23:32.961Z,15.98
2017-07-18T03:24:13.853Z,16.04
2017-07-18T03:24:54.742Z,15.97
2017-07-18T03:25:35.637Z,16.16
2017-07-18T03:26:16.531Z,16.1
2017-07-18T03:26:57.417Z,16.13
2017-07-18T03:27:38.298Z,16.16
2017-07-18T03:28:19.197Z,16.13
2017-07-18T03:29:00.083Z,16.08
2017-07-18T03:29:40.980Z,16.12
2017-07-18T03:30:21.872Z,15.98
2017-07-18T03:31:02.742Z,16.04
2017-07-18T03:31:43.633Z,16.12
2017-07-18T03:32:24.524Z,16.09
2017-07-18T03:33:05.420Z,16.04
2017-07-18T03:33:46.300Z,16.1
2017-07-18T03:34:27.192Z,16.17
2017-07-18T03:35:08.084Z,16.09
2017-07-18T03:35:48.974Z,16.12
2017-07-18T03:36:29.874Z,16.08
2017-07-18T03:37:10.766Z,16.17
2017-07-18T03:37:51.647Z,16.15
2017-07-18T03:38:32.548Z,16.13
2017-07-18T03:39:13.445Z,16.05
2017-07-18T03:39:54.325Z,16.12
2017-07-18T03:40:35.208Z,16.13
2017-07-18T03:41:16.096Z,16.09
2017-07-18T03:41:56.976Z,16.16
2017-07-18T03:42:37.864Z,16.1
2017-07-18T03:43:18.747Z,16.08
2017-07-18T03:43:59.654Z,16.04
2017-07-18T03:44:40.530Z,16.12
2017-07-18T03:45:21.411Z,16.16
2017-07-18T03:46:02.299Z,16.16
2017-07-18T03:46:43.206Z,16.2
2017-07-18T03:47:24.102Z,16.16
2017-07-18T03:48:52.345Z,16.13
2017-07-18T03:49:33.235Z,16.09
2017-07-18T03:50:14.120Z,16.15
2017-07-18T03:50:55.024Z,16.09
2017-07-18T03:51:35.911Z,16.09
2017-07-18T03:52:16.798Z,16.12
2017-07-18T03:52:57.692Z,16.15
2017-07-18T03:53:38.574Z,16.12
2017-07-18T03:54:19.469Z,16.09
2017-07-18T03:55:00.360Z,16.04
2017-07-18T03:55:41.252Z,16.01
2017-07-18T03:56:22.141Z,16.05
2017-07-18T03:57:03.023Z,16.02
2017-07-18T03:57:43.915Z,16.04
2017-07-18T03:58:24.804Z,16
2017-07-18T03:59:05.685Z,16
2017-07-18T03:59:48.260Z,16.01
2017-07-18T04:00:29.156Z,15.97
2017-07-18T04:01:10.050Z,16.01
2017-07-18T04:01:50.964Z,15.97
2017-07-18T04:02:31.855Z,16
2017-07-18T04:03:12.746Z,16.02
2017-07-18T04:03:53.636Z,16.08
2017-07-18T04:04:34.519Z,16.09
2017-07-18T04:05:15.407Z,16.09
2017-07-18T04:05:56.297Z,16.08
2017-07-18T04:06:37.197Z,16.13
2017-07-18T04:07:18.079Z,16.16
2017-07-18T04:07:59.030Z,16.16
2017-07-18T04:08:39.924Z,16.13
2017-07-18T04:09:20.805Z,16.16
2017-07-18T04:10:01.690Z,16.16
2017-07-18T04:10:42.583Z,16.15
2017-07-18T04:11:23.475Z,16.21
2017-07-18T04:12:04.365Z,16.1
2017-07-18T04:12:45.256Z,16.24
2017-07-18T04:13:26.142Z,16.15
2017-07-18T04:14:07.030Z,16.16
2017-07-18T04:14:47.917Z,16.04
2017-07-18T04:15:28.801Z,16.13
2017-07-18T04:16:09.684Z,16.13
2017-07-18T04:16:50.568Z,16.1
2017-07-18T04:17:31.472Z,16.08
2017-07-18T04:18:12.388Z,16.15
2017-07-18T04:18:53.243Z,16.16
2017-07-18T04:19:34.134Z,16.2
2017-07-18T04:20:15.026Z,16.23
2017-07-18T04:20:55.911Z,16.15
2017-07-18T04:21:36.802Z,16.24
2017-07-18T04:22:17.693Z,16.15
2017-07-18T04:22:58.596Z,16.23
2017-07-18T04:23:39.503Z,16.26
2017-07-18T04:24:20.388Z,16.21
2017-07-18T04:25:01.271Z,16.29
2017-07-18T04:25:42.165Z,16.35
2017-07-18T04:26:23.059Z,16.39
2017-07-18T04:27:03.967Z,16.38
2017-07-18T04:27:44.842Z,16.38
2017-07-18T04:28:25.731Z,16.41
2017-07-18T04:29:06.622Z,16.42
2017-07-18T04:29:47.512Z,16.5
2017-07-18T04:30:28.397Z,16.46
2017-07-18T04:31:09.277Z,16.41
2017-07-18T04:31:50.165Z,16.5
2017-07-18T04:32:31.050Z,16.49
2017-07-18T04:33:11.943Z,16.49
2017-07-18T04:33:53.394Z,16.47
2017-07-18T04:34:34.268Z,16.38
2017-07-18T04:35:15.158Z,16.41
2017-07-18T04:35:57.553Z,16.47
2017-07-18T04:36:38.445Z,16.49
2017-07-18T04:37:19.347Z,16.47
2017-07-18T04:38:00.237Z,16.46
2017-07-18T04:38:41.125Z,16.5
2017-07-18T04:39:22.014Z,16.42
2017-07-18T04:40:02.900Z,16.58
2017-07-18T04:40:43.796Z,16.5
2017-07-18T04:41:24.689Z,16.57
2017-07-18T04:42:07.547Z,16.6
2017-07-18T04:42:50.077Z,16.64
2017-07-18T04:43:30.968Z,16.56
2017-07-18T04:44:11.854Z,16.64
2017-07-18T04:44:52.747Z,16.61
2017-07-18T04:45:35.297Z,16.79
2017-07-18T04:46:16.187Z,16.65
2017-07-18T04:46:57.091Z,16.64
2017-07-18T04:47:39.569Z,16.65
2017-07-18T04:48:20.456Z,16.61
2017-07-18T04:49:03.281Z,16.68
2017-07-18T04:49:47.564Z,16.75
2017-07-18T04:50:30.058Z,16.75
2017-07-18T04:51:16.058Z,16.87
2017-07-18T04:51:56.933Z,16.86
2017-07-18T04:52:43.282Z,16.83
2017-07-18T04:53:26.057Z,16.89
2017-07-18T04:54:06.951Z,16.89
2017-07-18T04:54:47.834Z,16.91
2017-07-18T04:55:30.424Z,16.86
2017-07-18T04:56:13.282Z,16.89
2017-07-18T04:56:56.076Z,16.87
2017-07-18T04:57:38.806Z,16.93
2017-07-18T04:58:19.690Z,16.91
2017-07-18T04:59:03.853Z,16.94
2017-07-18T04:59:44.743Z,17.05
2017-07-18T05:00:25.662Z,17.02
2017-07-18T05:01:10.289Z,17.02
2017-07-18T05:01:53.784Z,17.11
2017-07-18T05:02:34.671Z,17.22
2017-07-18T05:03:15.562Z,17.11
2017-07-18T05:03:56.510Z,17.23
2017-07-18T05:04:37.408Z,17.27
2017-07-18T05:05:18.301Z,17.22
2017-07-18T05:05:59.188Z,17.19
2017-07-18T05:06:40.072Z,17.29
2017-07-18T05:07:20.963Z,17.23
2017-07-18T05:08:01.841Z,17.23
2017-07-18T05:08:42.728Z,17.27
2017-07-18T05:09:23.626Z,17.33
2017-07-18T05:10:04.517Z,17.38
2017-07-18T05:10:45.396Z,17.33
2017-07-18T05:11:26.287Z,17.46
2017-07-18T05:12:07.174Z,17.64
2017-07-18T05:12:48.059Z,17.6
2017-07-18T05:13:28.943Z,17.57
2017-07-18T05:14:09.840Z,17.49
2017-07-18T05:14:50.725Z,17.46
2017-07-18T05:15:31.619Z,17.34
2017-07-18T05:16:12.522Z,17.31
2017-07-18T05:16:53.408Z,17.34
2017-07-18T05:17:34.305Z,17.38
2017-07-18T05:18:15.199Z,17.33
2017-07-18T05:18:56.075Z,17.42
2017-07-18T05:19:36.951Z,17.46
2017-07-18T05:20:17.847Z,17.51
2017-07-18T05:20:58.754Z,17.51
2017-07-18T05:21:39.649Z,17.36
2017-07-18T05:22:20.540Z,17.46
2017-07-18T05:23:01.425Z,17.39
2017-07-18T05:23:42.319Z,17.41
2017-07-18T05:24:23.209Z,17.39
2017-07-18T05:25:04.121Z,17.38
2017-07-18T05:25:45.013Z,17.51
2017-07-18T05:26:25.892Z,17.51
2017-07-18T05:27:06.784Z,17.52
2017-07-18T05:29:01.421Z,17.54
2017-07-18T05:29:42.311Z,17.49
2017-07-18T05:30:23.186Z,17.6
2017-07-18T05:31:04.079Z,17.6
2017-07-18T05:31:44.967Z,17.57
2017-07-18T05:32:25.856Z,17.63
2017-07-18T05:33:06.751Z,17.64
2017-07-18T05:33:47.662Z,17.7
2017-07-18T05:34:28.533Z,17.67
2017-07-18T05:35:09.423Z,17.59
2017-07-18T05:35:50.318Z,17.64
2017-07-18T05:36:31.197Z,17.65
2017-07-18T05:37:12.082Z,17.56
2017-07-18T05:37:52.996Z,17.63
2017-07-18T05:38:33.878Z,17.7
2017-07-18T05:39:14.773Z,17.68
2017-07-18T05:39:55.667Z,17.64
2017-07-18T05:40:36.560Z,17.7
2017-07-18T05:41:17.447Z,17.65
2017-07-18T05:41:58.342Z,17.64
2017-07-18T05:42:39.235Z,17.82
2017-07-18T05:43:20.130Z,17.8
2017-07-18T05:44:01.034Z,17.85
2017-07-18T05:44:41.924Z,17.8
2017-07-18T05:45:22.829Z,17.83
2017-07-18T05:46:03.755Z,17.8
2017-07-18T05:46:44.642Z,17.82
2017-07-18T05:47:25.517Z,18.03
2017-07-18T05:48:06.474Z,18.01
2017-07-18T05:48:47.362Z,17.92
2017-07-18T05:49:28.251Z,17.97
2017-07-18T05:50:09.149Z,17.86
2017-07-18T05:50:50.028Z,17.85
2017-07-18T05:51:30.908Z,17.87
2017-07-18T05:52:11.803Z,17.97
2017-07-18T05:52:52.711Z,18
2017-07-18T05:53:33.597Z,18.03
2017-07-18T05:54:14.492Z,18.08
2017-07-18T05:54:55.380Z,18.1
2017-07-18T05:55:36.264Z,18.22
2017-07-18T05:56:17.160Z,18.22
2017-07-18T05:56:58.056Z,18.13
2017-07-18T05:57:38.943Z,18.22
2017-07-18T05:58:19.833Z,18.2
2017-07-18T05:59:00.743Z,18.34
2017-07-18T05:59:41.611Z,18.41
2017-07-18T06:00:22.498Z,18.41
2017-07-18T06:01:03.387Z,18.35
2017-07-18T06:01:44.283Z,18.44
2017-07-18T06:02:25.172Z,18.44
2017-07-18T06:03:06.066Z,18.45
2017-07-18T06:03:46.962Z,18.59
2017-07-18T06:04:27.856Z,18.71
2017-07-18T06:05:08.755Z,18.81
2017-07-18T06:05:49.649Z,18.71
2017-07-18T06:06:30.552Z,18.83
2017-07-18T06:07:11.453Z,18.59
2017-07-18T06:07:52.358Z,18.74
2017-07-18T06:08:33.241Z,18.7
2017-07-18T06:09:14.129Z,18.66
2017-07-18T06:09:55.025Z,18.63
2017-07-18T06:10:35.917Z,18.53
2017-07-18T06:11:16.807Z,18.58
2017-07-18T06:11:57.710Z,18.44
2017-07-18T06:12:38.592Z,18.45
2017-07-18T06:13:19.540Z,18.52
2017-07-18T06:14:00.409Z,18.49
2017-07-18T06:14:41.294Z,18.55
2017-07-18T06:15:22.192Z,18.63
2017-07-18T06:16:03.075Z,18.93
2017-07-18T06:16:43.966Z,19
2017-07-18T06:17:24.869Z,19.14
2017-07-18T06:18:05.755Z,19.07
2017-07-18T06:18:46.633Z,19.11
2017-07-18T06:19:27.505Z,19.12
2017-07-18T06:20:08.402Z,19.19
2017-07-18T06:20:49.301Z,19.29
2017-07-18T06:21:30.184Z,19.54
2017-07-18T06:22:11.080Z,19.54
2017-07-18T06:22:51.970Z,19.29
2017-07-18T06:23:32.852Z,19.37
2017-07-18T06:24:13.756Z,19.34
2017-07-18T06:24:54.643Z,19.48
2017-07-18T06:25:35.544Z,19.71
2017-07-18T06:26:16.443Z,20.36
2017-07-18T06:26:57.343Z,20.48
2017-07-18T06:27:38.246Z,20.6
2017-07-18T06:28:19.160Z,20.72
2017-07-18T06:29:00.035Z,21
2017-07-18T06:29:40.932Z,21.58
2017-07-18T06:30:21.827Z,22.06
2017-07-18T06:31:02.718Z,21.75
2017-07-18T06:31:43.609Z,21.45
2017-07-18T06:32:24.492Z,21.22
2017-07-18T06:33:05.380Z,21.24
2017-07-18T06:33:46.268Z,22.36
2017-07-18T06:34:27.172Z,22.78
2017-07-18T06:35:08.060Z,22.81
2017-07-18T06:35:48.956Z,23.31
2017-07-18T06:36:29.843Z,24.13
2017-07-18T06:37:10.729Z,24.57
2017-07-18T06:37:51.633Z,24.58
2017-07-18T06:38:32.549Z,24.1
2017-07-18T06:39:13.453Z,24.26
2017-07-18T06:39:54.360Z,23.73
2017-07-18T06:40:35.243Z,23.68
2017-07-18T06:41:16.155Z,23.25
2017-07-18T06:41:57.055Z,23.66
2017-07-18T06:42:37.948Z,24.43
2017-07-18T06:43:18.852Z,25.11
2017-07-18T06:43:59.737Z,25.47
2017-07-18T06:44:40.638Z,24.36
2017-07-18T06:45:21.553Z,25.03
2017-07-18T06:46:02.467Z,24.35
2017-07-18T06:47:30.652Z,23.63
2017-07-18T06:48:11.536Z,23.93
2017-07-18T06:48:52.442Z,23.56
2017-07-18T06:49:33.332Z,23.91
2017-07-18T06:50:14.228Z,24.54
2017-07-18T06:50:55.133Z,24.38
2017-07-18T06:51:36.028Z,23.68
2017-07-18T06:52:16.946Z,23.09
2017-07-18T06:52:57.904Z,23.25
2017-07-18T06:53:38.807Z,24.39
2017-07-18T06:54:19.717Z,24.39
2017-07-18T06:55:00.626Z,23.62
2017-07-18T06:55:41.549Z,23.06
2017-07-18T06:56:22.428Z,22.45
2017-07-18T06:57:03.322Z,22.78
2017-07-18T06:57:44.238Z,22.57
2017-07-18T06:58:25.136Z,22.22
2017-07-18T06:59:06.057Z,22.62
2017-07-18T06:59:46.947Z,22.98
2017-07-18T07:00:27.869Z,23.71
2017-07-18T07:01:08.785Z,23.73
2017-07-18T07:01:49.661Z,23.17
2017-07-18T07:02:30.557Z,24.39
2017-07-18T07:03:11.463Z,25.36
2017-07-18T07:03:52.377Z,25.6
2017-07-18T07:04:33.264Z,25.95
2017-07-18T07:05:14.168Z,25.51
2017-07-18T07:05:55.068Z,24.39
2017-07-18T07:06:35.975Z,23.92
2017-07-18T07:07:16.869Z,23.92
2017-07-18T07:07:57.777Z,24.02
2017-07-18T07:08:38.686Z,23.39
2017-07-18T07:09:19.570Z,23.03
2017-07-18T07:10:00.469Z,23.2
2017-07-18T07:10:41.417Z,23.08
2017-07-18T07:11:22.297Z,22.98
2017-07-18T07:12:03.181Z,22.88
2017-07-18T07:12:44.096Z,23.13
2017-07-18T07:13:24.997Z,24.26
2017-07-18T07:14:05.910Z,24.6
2017-07-18T07:14:46.839Z,24.7
2017-07-18T07:15:27.700Z,25.95
2017-07-18T07:16:08.611Z,26.77
2017-07-18T07:16:49.508Z,27.42
2017-07-18T07:17:30.420Z,27.92
2017-07-18T07:18:11.315Z,28.3
2017-07-18T07:18:52.250Z,28.62
2017-07-18T07:19:33.153Z,29.05
2017-07-18T07:20:14.056Z,28.93
2017-07-18T07:20:54.953Z,27.95
2017-07-18T07:21:35.859Z,26.16
2017-07-18T07:22:16.763Z,25.29
2017-07-18T07:22:57.669Z,26.51
2017-07-18T07:23:38.562Z,25.81
2017-07-18T07:24:19.452Z,24.38
2017-07-18T07:25:00.362Z,24.48
2017-07-18T07:25:41.261Z,24.86
2017-07-18T07:26:22.205Z,24.6
2017-07-18T07:27:03.103Z,24.08
2017-07-18T07:27:43.989Z,23.69
2017-07-18T07:28:24.895Z,23.31
2017-07-18T07:29:05.801Z,23.32
2017-07-18T07:29:46.691Z,24.4
2017-07-18T07:30:27.603Z,25.25
2017-07-18T07:31:08.524Z,25.78
2017-07-18T07:31:49.427Z,25.66
2017-07-18T07:32:30.340Z,25.6
2017-07-18T07:33:11.224Z,25.55
2017-07-18T07:33:52.138Z,24.57
2017-07-18T07:34:33.035Z,25.43
2017-07-18T07:35:13.946Z,26.26
2017-07-18T07:35:54.855Z,26.78
2017-07-18T07:36:35.754Z,26.52
2017-07-18T07:37:16.657Z,25.93
2017-07-18T07:37:57.563Z,26
2017-07-18T07:38:38.470Z,25.77
2017-07-18T07:39:19.378Z,24.39
2017-07-18T07:40:00.283Z,24.14
2017-07-18T07:40:41.168Z,24.6
2017-07-18T07:41:22.082Z,24.4
2017-07-18T07:42:02.987Z,24.57
2017-07-18T07:42:43.909Z,24.7
2017-07-18T07:43:24.811Z,25.72
2017-07-18T07:44:05.736Z,25.6
2017-07-18T07:44:46.634Z,26.34
2017-07-18T07:45:27.545Z,25.63
2017-07-18T07:46:08.454Z,25.93
2017-07-18T07:46:49.367Z,26.92
2017-07-18T07:47:30.248Z,27.39
2017-07-18T07:48:11.154Z,27.83
2017-07-18T07:48:52.061Z,28.23
2017-07-18T07:49:32.973Z,27.52
2017-07-18T07:50:13.884Z,27.95
2017-07-18T07:50:54.795Z,27.98
2017-07-18T07:51:35.697Z,27.92
2017-07-18T07:52:16.599Z,28.29
2017-07-18T07:52:57.505Z,28.14
2017-07-18T07:53:38.406Z,26.45
2017-07-18T07:54:19.321Z,25.54
2017-07-18T07:55:00.230Z,25.51
2017-07-18T07:55:41.138Z,26.16
2017-07-18T07:56:22.041Z,25.66
2017-07-18T07:57:02.968Z,25.36
2017-07-18T07:57:43.873Z,24.14
2017-07-18T07:58:24.792Z,24.39
2017-07-18T07:59:05.700Z,24.48
2017-07-18T07:59:46.627Z,24.51
2017-07-18T08:00:27.533Z,25.13
2017-07-18T08:01:08.434Z,24.89
2017-07-18T08:01:49.348Z,24.6
2017-07-18T08:02:30.253Z,24.8
2017-07-18T08:03:11.141Z,24.17
2017-07-18T08:03:52.052Z,23.98
2017-07-18T08:04:32.942Z,24.78
2017-07-18T08:05:13.849Z,25.51
2017-07-18T08:05:56.207Z,26.34
2017-07-18T08:06:37.185Z,27.12
2017-07-18T08:07:18.091Z,27.58
2017-07-18T08:07:59.019Z,28.11
2017-07-18T08:08:39.921Z,28.33
2017-07-18T08:09:20.828Z,28.59
2017-07-18T08:10:01.730Z,26.41
2017-07-18T08:10:42.650Z,26.02
2017-07-18T08:11:23.546Z,25.95
2017-07-18T08:12:04.447Z,25.21
2017-07-18T08:12:45.350Z,24.99
2017-07-18T08:13:26.264Z,24.42
2017-07-18T08:14:07.168Z,24.4
2017-07-18T08:14:48.080Z,25.22
2017-07-18T08:15:28.988Z,25.54
2017-07-18T08:16:09.901Z,25.03
2017-07-18T08:16:50.827Z,25.01
2017-07-18T08:17:31.766Z,25.33
2017-07-18T08:18:12.683Z,25.03
2017-07-18T08:18:53.608Z,25.03
2017-07-18T08:19:34.516Z,24.84
2017-07-18T08:20:15.428Z,24.4
2017-07-18T08:20:56.341Z,25.4
2017-07-18T08:21:37.245Z,26.33
2017-07-18T08:22:18.158Z,26.65
2017-07-18T08:22:59.067Z,27.22
2017-07-18T08:23:39.982Z,27.73
2017-07-18T08:24:20.885Z,27.65
2017-07-18T08:25:01.793Z,25.78
2017-07-18T08:25:42.708Z,25.28
2017-07-18T08:26:23.621Z,25.73
2017-07-18T08:27:04.522Z,25.72
2017-07-18T08:27:45.433Z,26.09
2017-07-18T08:28:26.360Z,26.55
2017-07-18T08:29:07.328Z,26.26
2017-07-18T08:29:48.231Z,26.68
2017-07-18T08:30:29.139Z,27.03
2017-07-18T08:31:10.041Z,26.75
2017-07-18T08:31:50.936Z,26.16
2017-07-18T08:32:31.849Z,25.84
2017-07-18T08:33:12.753Z,25.63
2017-07-18T08:33:53.657Z,25.98
2017-07-18T08:34:34.559Z,25.51
2017-07-18T08:35:15.458Z,25.33
2017-07-18T08:35:56.363Z,25.8
2017-07-18T08:36:37.271Z,26.47
2017-07-18T08:37:18.183Z,26.97
2017-07-18T08:37:59.091Z,27.18
2017-07-18T08:38:39.994Z,27.93
2017-07-18T08:39:20.903Z,28.48
2017-07-18T08:40:01.804Z,28.84
2017-07-18T08:40:42.710Z,29.01
2017-07-18T08:41:23.611Z,28.82
2017-07-18T08:42:04.521Z,28.54
2017-07-18T08:42:45.431Z,27.58
2017-07-18T08:43:26.334Z,27.54
2017-07-18T08:44:07.241Z,28
2017-07-18T08:44:48.149Z,28.35
2017-07-18T08:45:29.062Z,28.6
2017-07-18T08:46:09.962Z,28.23
2017-07-18T08:46:50.881Z,27.1
2017-07-18T08:47:31.793Z,26.38
2017-07-18T08:48:12.712Z,25.84
2017-07-18T08:48:53.602Z,25.26
2017-07-18T08:49:34.512Z,24.85
2017-07-18T08:50:15.431Z,25.77
2017-07-18T08:50:56.337Z,27.14
2017-07-18T08:51:37.239Z,27.93
2017-07-18T08:52:18.159Z,28.98